Nearby METAR Reports

 

KOFF - Offutt Afb/Belle, Nebraska, USA
Distance from station: SE 6mi, 10km
Updated: 01/17/2019 6:56pm
Overcast
Overcast
 Wind from NNE
Wind: NNE 3 mph , 6 km/h
Temperature: 30°F , -1°C
Dew Point: 30°F , -1°C
Humidity: 100%
Barometer: 30.13 inHg , 1020.3 hPa
Clouds: Overcast
Visibility: 10 miles , 16 km
Cloud details: Overcast 2200 ft
2019/01/18 00:56 KOFF 180056Z AUTO 03003KT 10SM OVC022 M01/M01 A3013 RMK AO2 SLP220 T10121012 $
KMLE - Omaha/Millard, Nebraska, USA
Distance from station: W 7mi, 11km
Updated: 01/17/2019 7:15pm
Overcast
Overcast
 Wind from calm
Wind: Calm
Temperature: 32°F , 0°C
Dew Point: 27°F , -3°C
Humidity: 80%
Barometer: 30.14 inHg , 1020.7 hPa
Clouds: Overcast
Visibility: 10 miles , 16 km
Cloud details: Overcast 2100 ft
2019/01/18 01:15 KMLE 180115Z AUTO 00000KT 10SM OVC021 00/M03 A3014 RMK AO2 T00001035
 
KOMA - Omaha/Eppley, Nebraska, USA
Distance from station: NNE 10mi, 15km
Updated: 01/17/2019 6:52pm
Overcast
Overcast
 Wind from NNE
Wind: NNE 5 mph , 7 km/h
Temperature: 30°F , -1°C
Wind Chill: 25°F , -4°C
Dew Point: 23°F , -5°C
Humidity: 75%
Barometer: 30.13 inHg , 1020.3 hPa
Clouds: Overcast
Visibility: 7 miles , 11 km
Cloud details: Overcast 2400 ft
2019/01/18 00:52 KOMA 180052Z 02004KT 7SM OVC024 M01/M05 A3013 RMK AO2 SLP215 T10111050
KCBF - Council Bluffs, Iowa, USA
Distance from station: ENE 12mi, 20km
Updated: 01/17/2019 7:15pm
Overcast
Overcast
 Wind from N
Wind: N 5 mph , 7 km/h
Temperature: 28°F , -2°C
Wind Chill: 22°F , -6°C
Dew Point: 28°F , -2°C
Humidity: 100%
Barometer: 30.13 inHg , 1020.3 hPa
Clouds: Overcast
Visibility: 9 miles , 14 km
Cloud details: Overcast 2000 ft
2019/01/18 01:15 KCBF 180115Z AUTO 35004KT 9SM OVC020 M02/M02 A3013 RMK AO2
 
KBTA - Blair Muni, Nebraska, USA
Distance from station: NNW 17mi, 27km
Updated: 01/17/2019 7:15pm
Overcast
Overcast
 Wind from NNE
Wind: NNE 6 mph , 9 km/h
Temperature: 28°F , -2°C
Wind Chill: 21°F , -6°C
Dew Point: 25°F , -4°C
Humidity: 86%
Barometer: 30.12 inHg , 1020 hPa
Clouds: Overcast
Visibility: 7 miles , 11 km
Cloud details: Overcast 1900 ft
2019/01/18 01:15 KBTA 180115Z AUTO 02005KT 7SM OVC019 M02/M04 A3012 RMK AO2 T10161042
KPMV - Plattsmouth Muni, Nebraska, USA
Distance from station: SSE 17mi, 28km
Updated: 01/17/2019 7:15pm
Overcast
Overcast
 Wind from calm
Wind: Calm
Temperature: 30°F , -1°C
Dew Point: 27°F , -3°C
Humidity: 86%
Barometer: 30.13 inHg , 1020.3 hPa
Clouds: Overcast
Visibility: 7 miles , 11 km
Cloud details: Overcast 2000 ft
2019/01/18 01:15 KPMV 180115Z AUTO 00000KT 7SM OVC020 M01/M03 A3013 RMK AO2 T10131032
 
KAHQ - Wahoo, Nebraska, USA
Distance from station: W 32mi, 52km
Updated: 01/17/2019 7:15pm
Overcast
Overcast
 Wind from calm
Wind: Calm
Temperature: 30°F , -1°C
Dew Point: 27°F , -3°C
Humidity: 86%
Barometer: 30.13 inHg , 1020.3 hPa
Clouds: Overcast
Visibility: 7 miles , 11 km
Cloud details: Overcast 1700 ft
2019/01/18 01:15 KAHQ 180115Z AUTO 00000KT 7SM OVC017 M01/M03 A3013 RMK AO2 T10101026
KFET - Fremont Muni Arp, Nebraska, USA
Distance from station: WNW 33mi, 53km
Updated: 01/17/2019 7:15pm
Overcast
Overcast
 Wind from calm
Wind: Calm
Temperature: 32°F , 0°C
Dew Point: 27°F , -3°C
Humidity: 80%
Barometer: 30.14 inHg , 1020.7 hPa
Clouds: Overcast
Visibility: 10 miles , 16 km
Cloud details: Overcast 1800 ft
2019/01/18 01:15 KFET 180115Z AUTO 00000KT 10SM OVC018 00/M03 A3014 RMK AO2 T00001033
 
KRDK - Red Oak, Iowa, USA
Distance from station: ESE 39mi, 63km
Updated: 01/17/2019 7:15pm
Overcast
Overcast
 Wind from calm
Wind: Calm
Temperature: 28°F , -2°C
Dew Point: 25°F , -4°C
Humidity: 86%
Barometer: 30.14 inHg , 1020.7 hPa
Clouds: Overcast
Visibility: 10 miles , 16 km
Cloud details: Overcast 2300 ft
2019/01/18 01:15 KRDK 180115Z AUTO 00000KT 10SM OVC023 M02/M04 A3014 RMK AO2
KTQE - Tekamah, Nebraska, USA
Distance from station: NNW 41mi, 66km
Updated: 01/17/2019 6:54pm
Overcast
Overcast
 Wind from N
Wind: N 8 mph , 13 km/h
Temperature: 28°F , -2°C
Wind Chill: 20°F , -7°C
Dew Point: 23°F , -5°C
Humidity: 80%
Barometer: 30.15 inHg , 1021 hPa
Clouds: Overcast
Visibility: 8 miles , 13 km
Cloud details: Overcast 2100 ft
2019/01/18 00:54 KTQE 180054Z AUTO 01007KT 8SM OVC021 M02/M05 A3015 RMK AO2 SLP218 T10221050
 
KAFK - Nebraska City, Nebraska, USA
Distance from station: S 42mi, 67km
Updated: 01/17/2019 7:15pm
Overcast
Overcast
 Wind from calm
Wind: Calm
Temperature: 30°F , -1°C
Dew Point: 25°F , -4°C
Humidity: 80%
Barometer: 30.14 inHg , 1020.7 hPa
Clouds: Overcast
Visibility: 7 miles , 11 km
Cloud details: Overcast 1900 ft
2019/01/18 01:15 KAFK 180115Z AUTO 00000KT 7SM OVC019 M01/M04 A3014 RMK AO2 T10111040
KHNR - Harlan Muni, Iowa, USA
Distance from station: NE 43mi, 69km
Updated: 01/17/2019 7:15pm
Overcast
Overcast
 Wind from N
Wind: N 5 mph , 7 km/h
Temperature: 28°F , -2°C
Wind Chill: 22°F , -6°C
Dew Point: 25°F , -4°C
Humidity: 86%
Barometer: 30.13 inHg , 1020.3 hPa
Clouds: Overcast
Visibility: 10 miles , 16 km
Cloud details: Overcast 2000 ft
2019/01/18 01:15 KHNR 180115Z AUTO 35004KT 10SM OVC020 M02/M04 A3013 RMK AO2
 
KSDA - Shenandoah Muni, Iowa, USA
Distance from station: SE 43mi, 69km
Updated: 01/17/2019 7:15pm
Overcast
Overcast
 Wind from calm
Wind: Calm
Temperature: 30°F , -1°C
Dew Point: 27°F , -3°C
Humidity: 86%
Barometer: 30.16 inHg , 1021.3 hPa
Clouds: Overcast
Visibility: 8 miles , 13 km
Cloud details: Overcast 2300 ft
2019/01/18 01:15 KSDA 180115Z AUTO 00000KT 8SM OVC023 M01/M03 A3016 RMK AO2
KLNK - Lincoln, Nebraska, USA
Distance from station: WSW 47mi, 76km
Updated: 01/17/2019 6:54pm
Overcast
Overcast
 Wind from E
Wind: E 6 mph , 9 km/h
Temperature: 30°F , -1°C
Wind Chill: 24°F , -4°C
Dew Point: 27°F , -3°C
Humidity: 86%
Barometer: 30.13 inHg , 1020.3 hPa
Clouds: Overcast
Visibility: 7 miles , 11 km
Cloud details: Overcast 1800 ft
2019/01/18 00:54 KLNK 180054Z 08005KT 7SM OVC018 M01/M03 A3013 RMK AO2 SLP218 T10061033
 
KAIO - Atlantic, Iowa, USA
Distance from station: ENE 51mi, 82km
Updated: 01/17/2019 7:15pm
Overcast
Overcast
 Wind from NW
Wind: NW 5 mph , 7 km/h
Temperature: 28°F , -2°C
Wind Chill: 22°F , -6°C
Dew Point: 27°F , -3°C
Humidity: 93%
Barometer: 30.13 inHg , 1020.3 hPa
Clouds: Overcast
Visibility: 10 miles , 16 km
Cloud details: Overcast 2100 ft
2019/01/18 01:15 KAIO 180115Z AUTO 31004KT 10SM OVC021 M02/M03 A3013 RMK AO2
KICL - Clarinda, Iowa, USA
Distance from station: ESE 60mi, 97km
Updated: 01/17/2019 7:15pm
Overcast
Overcast
 Wind from calm
Wind: Calm
Temperature: 28°F , -2°C
Dew Point: 25°F , -4°C
Humidity: 86%
Barometer: 30.16 inHg , 1021.3 hPa
Clouds: Overcast
Visibility: 10 miles , 16 km
Cloud details: Overcast 2300 ft
2019/01/18 01:15 KICL 180115Z AUTO 00000KT 10SM OVC023 M02/M04 A3016 RMK AO2
 
KDNS - Denison, Iowa, USA
Distance from station: NNE 62mi, 100km
Updated: 01/17/2019 7:15pm
Overcast
Overcast
 Wind from N
Wind: N 7 mph , 11 km/h
Temperature: 27°F , -3°C
Wind Chill: 19°F , -7°C
Dew Point: 21°F , -6°C
Humidity: 80%
Barometer: 30.15 inHg , 1021 hPa
Clouds: Overcast
Visibility: 10 miles , 16 km
Cloud details: Overcast 1800 ft
2019/01/18 01:15 KDNS 180115Z AUTO 35006KT 10SM OVC018 M03/M06 A3015 RMK AO2
KADU - Audubon, Iowa, USA
Distance from station: ENE 65mi, 105km
Updated: 01/17/2019 7:15pm
Overcast
Overcast
 Wind from calm
Wind: Calm
Temperature: 27°F , -3°C
Dew Point: 23°F , -5°C
Humidity: 86%
Barometer: 30.13 inHg , 1020.3 hPa
Clouds: Overcast
Visibility: 10 miles , 16 km
Cloud details: Overcast 1900 ft
2019/01/18 01:15 KADU 180115Z AUTO 00000KT 10SM OVC019 M03/M05 A3013 RMK AO2
 
KOLU - Columbus Muni, Nebraska, USA
Distance from station: WNW 71mi, 115km
Updated: 01/17/2019 6:56pm
Overcast
Overcast
 Wind from E
Wind: E 9 mph , 15 km/h
Temperature: 30°F , -1°C
Wind Chill: 22°F , -6°C
Dew Point: 27°F , -3°C
Humidity: 86%
Barometer: 30.11 inHg , 1019.6 hPa
Clouds: Overcast
Visibility: 8 miles , 13 km
Cloud details: Overcast 1600 ft
2019/01/18 00:56 KOLU 180056Z AUTO 08008KT 8SM OVC016 M01/M03 A3011 RMK AO2 SLP215 T10111028 FZRANO
KBIE - Beatrice Municip, Nebraska, USA
Distance from station: SSW 75mi, 120km
Updated: 01/17/2019 7:15pm
Overcast
Overcast
 Wind from ENE
Wind: ENE 3 mph , 6 km/h
Temperature: 32°F , 0°C
Dew Point: 32°F , 0°C
Humidity: 100%
Barometer: 30.11 inHg , 1019.6 hPa
Clouds: Overcast
Visibility: 5 miles , 8 km
Cloud details: Overcast 1600 ft
2019/01/18 01:15 KBIE 180115Z AUTO 06003KT 5SM OVC016 00/00 A3011 RMK AO2 T00031005 PWINO